createdAt,value
2022-12-08T00:01:23.711Z,85.88
2022-12-08T00:03:51.461Z,84.91
2022-12-08T00:06:44.139Z,84.35
2022-12-08T00:09:24.717Z,83.96
2022-12-08T00:11:52.031Z,83.78
2022-12-08T00:14:19.716Z,84.95
2022-12-08T00:16:47.349Z,84.60
2022-12-08T00:19:14.835Z,83.68
2022-12-08T00:21:42.183Z,83.86
2022-12-08T00:24:09.254Z,84.78
2022-12-08T00:26:37.271Z,83.98
2022-12-08T00:29:05.260Z,84.46
2022-12-08T00:31:32.850Z,84.28
2022-12-08T00:34:00.954Z,84.25
2022-12-08T00:36:28.262Z,84.26
2022-12-08T00:38:55.735Z,84.14
2022-12-08T00:41:43.050Z,84.03
2022-12-08T00:44:13.053Z,83.16
2022-12-08T00:46:41.054Z,83.86
2022-12-08T00:49:08.549Z,83.87
2022-12-08T00:51:36.195Z,84.48
2022-12-08T00:54:04.738Z,84.41
2022-12-08T00:56:32.202Z,83.99
2022-12-08T00:59:00.700Z,83.66
2022-12-08T01:01:28.210Z,83.95
2022-12-08T01:03:55.601Z,83.14
2022-12-08T01:06:23.282Z,83.72
2022-12-08T01:08:50.745Z,83.61
2022-12-08T01:11:19.450Z,83.68
2022-12-08T01:13:47.110Z,83.72
2022-12-08T01:16:29.783Z,83.85
2022-12-08T01:18:58.175Z,83.42
2022-12-08T01:21:25.659Z,83.97
2022-12-08T01:23:53.078Z,83.89
2022-12-08T01:26:21.080Z,83.11
2022-12-08T01:28:48.756Z,83.49
2022-12-08T01:31:18.539Z,83.09
2022-12-08T01:33:46.465Z,83.51
2022-12-08T01:36:26.577Z,83.83
2022-12-08T01:38:54.758Z,83.52
2022-12-08T01:41:24.749Z,83.83
2022-12-08T01:44:05.308Z,83.95
2022-12-08T01:46:33.815Z,83.76
2022-12-08T01:49:16.764Z,84.12
2022-12-08T01:52:09.314Z,84.56
2022-12-08T01:54:40.587Z,84.51
2022-12-08T01:57:16.320Z,83.88
2022-12-08T01:59:49.203Z,84.12
2022-12-08T02:02:16.980Z,84.27
2022-12-08T02:04:44.325Z,84.09
2022-12-08T02:07:13.118Z,85.22
2022-12-08T02:09:41.109Z,85.47
2022-12-08T02:12:09.111Z,85.44
2022-12-08T02:14:36.597Z,85.34
2022-12-08T02:17:15.020Z,85.32
2022-12-08T02:20:05.949Z,84.99
2022-12-08T02:22:40.029Z,84.83
2022-12-08T02:25:33.888Z,83.89
2022-12-08T02:28:06.124Z,84.66
2022-12-08T02:30:36.912Z,84.67
2022-12-08T02:33:22.226Z,84.31
2022-12-08T02:35:57.786Z,84.44
2022-12-08T02:38:37.034Z,83.91
2022-12-08T02:41:17.131Z,83.64
2022-12-08T02:43:47.352Z,85.10
2022-12-08T02:46:20.649Z,85.24
2022-12-08T02:48:48.356Z,85.33
2022-12-08T02:51:16.087Z,85.33
2022-12-08T02:53:44.139Z,84.46
2022-12-08T02:56:50.046Z,83.81
2022-12-08T02:59:44.143Z,83.34
2022-12-08T03:02:23.696Z,83.96
2022-12-08T03:04:51.249Z,83.93
2022-12-08T03:07:25.054Z,84.49
2022-12-08T03:09:59.531Z,83.87
2022-12-08T03:12:32.373Z,83.68
2022-12-08T03:15:11.375Z,83.03
2022-12-08T03:17:42.061Z,82.74
2022-12-08T03:20:11.538Z,83.04
2022-12-08T03:22:40.379Z,83.41
2022-12-08T03:25:11.165Z,83.45
2022-12-08T03:27:38.933Z,83.37
2022-12-08T03:30:07.452Z,83.27
2022-12-08T03:32:55.643Z,82.84
2022-12-08T03:35:29.079Z,83.02
2022-12-08T03:38:23.163Z,83.05
2022-12-08T03:41:10.937Z,82.78
2022-12-08T03:43:38.556Z,82.96
2022-12-08T03:46:06.264Z,82.78
2022-12-08T03:48:33.944Z,82.89
2022-12-08T03:51:01.559Z,82.53
2022-12-08T03:53:29.404Z,82.24
2022-12-08T03:55:57.183Z,82.22
2022-12-08T03:58:24.380Z,82.47
2022-12-08T04:00:51.951Z,82.62
2022-12-08T04:03:19.632Z,82.50
2022-12-08T04:05:47.571Z,82.66
2022-12-08T04:08:15.518Z,82.95
2022-12-08T04:10:42.956Z,82.88
2022-12-08T04:13:10.567Z,82.35
2022-12-08T04:15:38.021Z,81.96
2022-12-08T04:18:05.739Z,81.71
2022-12-08T04:20:33.425Z,81.96
2022-12-08T04:23:01.102Z,81.86
2022-12-08T04:25:28.961Z,82.03
2022-12-08T04:27:56.573Z,81.77
2022-12-08T04:30:24.299Z,82.32
2022-12-08T04:32:51.846Z,82.38
2022-12-08T04:35:19.431Z,82.58
2022-12-08T04:37:47.210Z,82.36
2022-12-08T04:40:15.211Z,81.79
2022-12-08T04:42:42.853Z,82.24
2022-12-08T04:45:10.853Z,82.15
2022-12-08T04:47:38.453Z,82.08
2022-12-08T04:50:06.888Z,82.02
2022-12-08T04:52:36.584Z,82.78
2022-12-08T04:55:04.692Z,82.54
2022-12-08T04:57:32.230Z,82.19
2022-12-08T04:59:59.977Z,82.33
2022-12-08T05:02:27.746Z,82.34
2022-12-08T05:04:55.587Z,82.07
2022-12-08T05:07:23.455Z,82.25
2022-12-08T05:09:50.988Z,82.44
2022-12-08T05:12:18.470Z,82.31
2022-12-08T05:14:47.621Z,82.71
2022-12-08T05:17:16.464Z,82.46
2022-12-08T05:19:44.174Z,82.33
2022-12-08T05:22:11.595Z,82.01
2022-12-08T05:24:43.971Z,82.05
2022-12-08T05:27:14.470Z,81.62
2022-12-08T05:29:42.198Z,81.90
2022-12-08T05:32:09.633Z,82.19
2022-12-08T05:34:37.249Z,81.81
2022-12-08T05:37:04.997Z,82.16
2022-12-08T05:39:32.476Z,81.98
2022-12-08T05:42:00.236Z,82.04
2022-12-08T05:44:27.481Z,81.68
2022-12-08T05:46:54.884Z,81.64
2022-12-08T05:49:22.484Z,81.46
2022-12-08T05:51:49.884Z,81.62
2022-12-08T05:54:17.341Z,82.17
2022-12-08T05:56:44.727Z,81.78
2022-12-08T05:59:12.265Z,81.92
2022-12-08T06:01:39.678Z,82.20
2022-12-08T06:04:07.168Z,82.34
2022-12-08T06:06:35.727Z,82.67
2022-12-08T06:09:04.892Z,82.45
2022-12-08T06:11:33.174Z,82.33
2022-12-08T06:14:00.740Z,82.19
2022-12-08T06:16:28.673Z,82.01
2022-12-08T06:18:56.615Z,82.19
2022-12-08T06:21:24.401Z,81.29
2022-12-08T06:23:54.519Z,81.32
2022-12-08T06:26:22.355Z,81.22
2022-12-08T06:28:50.468Z,80.92
2022-12-08T06:31:20.593Z,81.02
2022-12-08T06:33:48.518Z,80.90
2022-12-08T06:36:17.518Z,80.99
2022-12-08T06:38:44.932Z,81.53
2022-12-08T06:41:12.918Z,81.41
2022-12-08T06:43:40.295Z,81.00
2022-12-08T06:46:10.218Z,81.08
2022-12-08T06:48:37.516Z,81.11
2022-12-08T06:51:08.309Z,81.25
2022-12-08T06:53:35.532Z,81.33
2022-12-08T06:56:03.200Z,81.45
2022-12-08T06:58:30.309Z,81.11
2022-12-08T07:00:57.204Z,80.96
2022-12-08T07:03:23.990Z,80.66
2022-12-08T07:05:50.839Z,80.63
2022-12-08T07:08:17.938Z,80.13
2022-12-08T07:10:44.874Z,80.58
2022-12-08T07:13:11.697Z,80.43
2022-12-08T07:15:38.494Z,80.65
2022-12-08T07:18:05.407Z,80.21
2022-12-08T07:20:33.925Z,80.26
2022-12-08T07:23:00.635Z,80.42
2022-12-08T07:25:27.702Z,80.55
2022-12-08T07:27:54.645Z,81.03
2022-12-08T07:30:21.730Z,80.87
2022-12-08T07:32:48.661Z,80.02
2022-12-08T07:35:15.728Z,79.89
2022-12-08T07:37:42.769Z,80.15
2022-12-08T07:40:10.481Z,79.88
2022-12-08T07:42:37.524Z,79.67
2022-12-08T07:45:05.062Z,79.62
2022-12-08T07:47:32.233Z,79.60
2022-12-08T07:49:59.286Z,79.25
2022-12-08T07:52:26.322Z,78.98
2022-12-08T07:54:53.347Z,79.08
2022-12-08T07:57:22.129Z,79.28
2022-12-08T07:59:49.314Z,78.57
2022-12-08T08:02:26.258Z,78.33
2022-12-08T08:04:53.811Z,77.56
2022-12-08T08:07:21.077Z,78.25
2022-12-08T08:09:48.223Z,77.92
2022-12-08T08:12:30.839Z,77.69
2022-12-08T08:15:00.302Z,77.72
2022-12-08T08:17:28.047Z,76.67
2022-12-08T08:19:55.120Z,76.69
2022-12-08T08:22:22.104Z,76.53
2022-12-08T08:24:49.046Z,76.21
2022-12-08T08:27:16.259Z,75.47
2022-12-08T08:29:43.533Z,74.62
2022-12-08T08:32:10.688Z,74.13
2022-12-08T08:34:38.020Z,74.42
2022-12-08T08:37:05.426Z,74.47
2022-12-08T08:39:32.607Z,72.43
2022-12-08T08:41:59.784Z,73.52
2022-12-08T08:44:26.881Z,73.34
2022-12-08T08:46:53.958Z,74.19
2022-12-08T08:49:21.490Z,73.51
2022-12-08T08:51:48.764Z,73.45
2022-12-08T08:54:15.881Z,74.51
2022-12-08T08:56:42.780Z,73.90
2022-12-08T08:59:12.087Z,72.86
2022-12-08T09:01:39.110Z,72.78
2022-12-08T09:04:06.102Z,73.17
2022-12-08T09:06:33.311Z,73.06
2022-12-08T09:09:00.628Z,73.31
2022-12-08T09:11:27.844Z,73.24
2022-12-08T09:13:55.494Z,73.84
2022-12-08T09:16:22.732Z,74.27
2022-12-08T09:18:49.938Z,75.25
2022-12-08T09:21:23.149Z,74.91
2022-12-08T09:23:51.804Z,74.26
2022-12-08T09:26:23.264Z,73.94
2022-12-08T09:28:54.800Z,74.71
2022-12-08T09:31:27.932Z,74.57
2022-12-08T09:33:54.857Z,75.02
2022-12-08T09:36:21.747Z,74.60
2022-12-08T09:38:50.374Z,73.78
2022-12-08T09:41:49.858Z,76.05
2022-12-08T09:44:34.675Z,75.34
2022-12-08T09:47:04.107Z,73.16
2022-12-08T09:49:47.174Z,72.66
2022-12-08T09:52:21.329Z,70.79
2022-12-08T09:54:48.778Z,69.61
2022-12-08T09:57:17.751Z,69.89
2022-12-08T09:59:49.336Z,68.73
2022-12-08T10:02:27.610Z,68.40
2022-12-08T10:04:56.162Z,68.35
2022-12-08T10:07:46.382Z,68.34
2022-12-08T10:10:32.618Z,68.67
2022-12-08T10:13:18.066Z,69.61
2022-12-08T10:16:22.006Z,68.43
2022-12-08T10:18:58.018Z,68.58
2022-12-08T10:21:27.566Z,68.27
2022-12-08T10:23:59.406Z,67.91
2022-12-08T10:26:26.682Z,68.37
2022-12-08T10:28:53.705Z,66.88
2022-12-08T10:31:22.697Z,66.64
2022-12-08T10:33:58.687Z,65.84
2022-12-08T10:36:45.248Z,65.96
2022-12-08T10:39:35.063Z,65.33
2022-12-08T10:42:13.828Z,64.25
2022-12-08T10:45:09.587Z,63.89
2022-12-08T10:47:44.794Z,62.65
2022-12-08T10:50:15.845Z,62.61
2022-12-08T10:52:42.618Z,62.91
2022-12-08T10:55:19.660Z,62.22
2022-12-08T10:57:49.069Z,62.51
2022-12-08T11:00:20.509Z,62.42
2022-12-08T11:03:02.139Z,62.15
2022-12-08T11:05:33.734Z,62.02
2022-12-08T11:08:01.066Z,62.74
2022-12-08T11:10:33.531Z,62.77
2022-12-08T11:13:02.579Z,62.42
2022-12-08T11:15:33.996Z,62.68
2022-12-08T11:18:03.235Z,62.68
2022-12-08T11:20:38.721Z,63.35
2022-12-08T11:23:20.382Z,62.84
2022-12-08T11:25:48.696Z,63.92
2022-12-08T11:28:16.557Z,64.24
2022-12-08T11:30:47.368Z,64.67
2022-12-08T11:33:18.063Z,64.67
2022-12-08T11:35:47.797Z,64.40
2022-12-08T11:38:22.939Z,65.48
2022-12-08T11:41:04.070Z,65.22
2022-12-08T11:43:42.736Z,66.38
2022-12-08T11:46:13.769Z,66.35
2022-12-08T11:48:50.876Z,67.46
2022-12-08T11:51:29.568Z,68.20
2022-12-08T11:54:28.617Z,68.44
2022-12-08T11:56:59.282Z,67.74
2022-12-08T11:59:29.252Z,66.83
2022-12-08T12:01:58.566Z,67.87
2022-12-08T12:04:36.632Z,68.33
2022-12-08T12:07:12.878Z,68.09
2022-12-08T12:09:56.900Z,68.06
2022-12-08T12:12:57.750Z,67.07
2022-12-08T12:15:51.823Z,67.90
2022-12-08T12:18:29.153Z,68.47
2022-12-08T12:21:12.740Z,68.28
2022-12-08T12:23:43.834Z,69.05
2022-12-08T12:26:19.934Z,69.21
2022-12-08T12:29:08.660Z,70.01
2022-12-08T12:31:37.996Z,69.44
2022-12-08T12:34:14.946Z,69.55
2022-12-08T12:36:49.531Z,70.02
2022-12-08T12:39:19.328Z,70.17
2022-12-08T12:41:48.532Z,70.21
2022-12-08T12:44:19.635Z,70.85
2022-12-08T12:46:46.405Z,70.31
2022-12-08T12:49:38.300Z,69.56
2022-12-08T12:52:18.171Z,71.14
2022-12-08T12:55:10.513Z,70.72
2022-12-08T12:57:53.748Z,70.53
2022-12-08T13:00:26.446Z,71.12
2022-12-08T13:02:55.840Z,70.94
2022-12-08T13:05:30.263Z,70.41
2022-12-08T13:08:06.695Z,70.63
2022-12-08T13:10:35.017Z,70.17
2022-12-08T13:13:18.166Z,70.29
2022-12-08T13:15:54.054Z,70.98
2022-12-08T13:18:56.501Z,69.65
2022-12-08T13:21:25.530Z,69.66
2022-12-08T13:24:13.898Z,70.30
2022-12-08T13:26:51.529Z,70.18
2022-12-08T13:29:25.601Z,69.66
2022-12-08T13:31:57.074Z,70.05
2022-12-08T13:34:42.241Z,69.90
2022-12-08T13:37:12.438Z,70.29
2022-12-08T13:39:39.561Z,69.92
2022-12-08T13:42:32.385Z,70.06
2022-12-08T13:46:12.259Z,69.78
2022-12-08T13:48:55.913Z,70.29
2022-12-08T13:57:19.200Z,69.94
2022-12-08T13:59:46.472Z,70.49
2022-12-08T14:02:21.401Z,69.70
2022-12-08T14:07:38.193Z,69.58
2022-12-08T14:10:09.265Z,69.98
2022-12-08T14:12:37.011Z,69.60
2022-12-08T14:15:06.945Z,69.67
2022-12-08T14:17:34.285Z,69.64
2022-12-08T14:20:19.984Z,70.58
2022-12-08T14:22:50.376Z,70.55
2022-12-08T14:25:18.140Z,70.52
2022-12-08T14:27:45.868Z,71.20
2022-12-08T14:30:15.935Z,70.96
2022-12-08T14:32:54.754Z,70.19
2022-12-08T14:35:32.028Z,70.54
2022-12-08T14:38:01.773Z,70.49
2022-12-08T14:40:37.499Z,70.15
2022-12-08T14:43:07.993Z,70.39
2022-12-08T14:45:44.252Z,70.31
2022-12-08T14:48:39.044Z,70.97
2022-12-08T14:51:24.510Z,70.74
2022-12-08T14:54:09.787Z,69.46
2022-12-08T14:56:39.526Z,69.53
2022-12-08T14:59:09.424Z,68.91
2022-12-08T15:01:37.146Z,69.47
2022-12-08T15:04:19.429Z,69.36
2022-12-08T15:06:54.556Z,69.92
2022-12-08T15:09:40.050Z,68.84
2022-12-08T15:12:23.243Z,69.17
2022-12-08T15:15:16.020Z,69.96
2022-12-08T15:18:08.921Z,69.79
2022-12-08T15:20:39.308Z,71.40
2022-12-08T15:23:11.043Z,71.16
2022-12-08T15:25:38.082Z,70.41
2022-12-08T15:28:05.304Z,70.82
2022-12-08T15:30:33.648Z,71.25
2022-12-08T15:33:01.068Z,71.04
2022-12-08T15:35:28.796Z,71.36
2022-12-08T15:37:56.073Z,71.81
2022-12-08T15:40:23.453Z,71.65
2022-12-08T15:42:50.622Z,71.43
2022-12-08T15:45:18.076Z,71.46
2022-12-08T15:47:46.078Z,71.18
2022-12-08T15:50:21.783Z,71.11
2022-12-08T15:52:50.186Z,71.26
2022-12-08T15:55:21.844Z,70.57
2022-12-08T15:58:51.323Z,70.80
2022-12-08T16:00:55.956Z,70.46
2022-12-08T16:04:08.936Z,70.43
2022-12-08T16:09:13.173Z,70.24
2022-12-08T16:12:08.903Z,70.13
2022-12-08T16:17:26.464Z,69.25
2022-12-08T16:19:53.731Z,69.15
2022-12-08T16:25:21.632Z,69.83
2022-12-08T16:28:08.400Z,69.28
2022-12-08T16:30:40.116Z,69.48
2022-12-08T16:33:07.110Z,69.12
2022-12-08T16:35:34.495Z,69.39
2022-12-08T16:38:01.801Z,69.32
2022-12-08T16:40:29.124Z,68.45
2022-12-08T16:42:56.695Z,68.46
2022-12-08T16:45:29.425Z,68.34
2022-12-08T16:47:59.117Z,68.49
2022-12-08T16:50:32.217Z,68.68
2022-12-08T16:53:07.121Z,68.20
2022-12-08T16:55:34.852Z,68.33
2022-12-08T16:58:02.855Z,68.50
2022-12-08T17:00:31.219Z,68.06
2022-12-08T17:02:59.222Z,68.04
2022-12-08T17:05:27.238Z,68.83
2022-12-08T17:07:54.944Z,70.26
2022-12-08T17:10:25.345Z,70.45
2022-12-08T17:12:52.724Z,70.69
2022-12-08T17:15:22.359Z,71.22
2022-12-08T17:17:49.767Z,70.96
2022-12-08T17:20:19.815Z,71.27
2022-12-08T17:22:47.873Z,71.55
2022-12-08T17:25:15.875Z,72.20
2022-12-08T17:27:43.145Z,72.07
2022-12-08T17:30:12.238Z,71.62
2022-12-08T17:32:39.725Z,71.44
2022-12-08T17:35:07.780Z,71.09
2022-12-08T17:37:35.220Z,71.56
2022-12-08T17:40:02.979Z,70.90
2022-12-08T17:42:30.887Z,70.83
2022-12-08T17:44:58.154Z,71.13
2022-12-08T17:47:25.545Z,71.35
2022-12-08T17:49:52.841Z,71.06
2022-12-08T17:52:20.158Z,71.54
2022-12-08T17:54:47.892Z,71.15
2022-12-08T17:57:15.739Z,71.60
2022-12-08T17:59:43.121Z,72.44
2022-12-08T18:02:12.217Z,71.85
2022-12-08T18:04:39.894Z,71.90
2022-12-08T18:07:07.119Z,71.83
2022-12-08T18:09:34.763Z,71.91
2022-12-08T18:12:02.259Z,72.01
2022-12-08T18:14:29.898Z,71.58
2022-12-08T18:16:57.386Z,72.31
2022-12-08T18:19:24.900Z,72.29
2022-12-08T18:21:52.349Z,71.98
2022-12-08T18:24:22.331Z,72.12
2022-12-08T18:26:52.519Z,71.70
2022-12-08T18:29:22.016Z,71.74
2022-12-08T18:31:49.387Z,71.74
2022-12-08T18:34:19.136Z,71.67
2022-12-08T18:36:46.909Z,71.13
2022-12-08T18:39:26.239Z,71.59
2022-12-08T18:41:54.025Z,71.65
2022-12-08T18:44:21.559Z,71.72
2022-12-08T18:46:48.852Z,71.04
2022-12-08T18:49:19.040Z,71.26
2022-12-08T18:51:47.033Z,71.34
2022-12-08T18:54:14.712Z,71.45
2022-12-08T18:56:42.005Z,71.39
2022-12-08T18:59:11.292Z,71.32
2022-12-08T19:01:39.984Z,71.33
2022-12-08T19:04:27.760Z,71.72
2022-12-08T19:06:56.418Z,71.83
2022-12-08T19:09:25.786Z,71.18
2022-12-08T19:11:53.297Z,71.08
2022-12-08T19:14:27.255Z,71.32
2022-12-08T19:16:55.213Z,71.91
2022-12-08T19:19:22.797Z,71.26
2022-12-08T19:21:50.294Z,71.47
2022-12-08T19:24:17.927Z,71.14
2022-12-08T19:26:45.423Z,71.31
2022-12-08T19:29:13.315Z,71.25
2022-12-08T19:31:41.445Z,71.37
2022-12-08T19:34:10.222Z,71.07
2022-12-08T19:36:42.717Z,71.20
2022-12-08T19:39:36.628Z,71.43
2022-12-08T19:42:24.915Z,71.20
2022-12-08T19:44:54.969Z,71.17
2022-12-08T19:47:24.725Z,71.09
2022-12-08T19:49:53.309Z,70.50
2022-12-08T19:52:21.063Z,71.27
2022-12-08T19:54:48.463Z,71.50
2022-12-08T19:57:16.149Z,71.53
2022-12-08T19:59:43.441Z,71.90
2022-12-08T20:02:11.325Z,72.00
2022-12-08T20:04:38.967Z,71.36
2022-12-08T20:07:06.378Z,71.08
2022-12-08T20:09:34.096Z,70.56
2022-12-08T20:12:01.625Z,70.32
2022-12-08T20:14:28.956Z,70.52
2022-12-08T20:16:56.948Z,70.73
2022-12-08T20:19:24.455Z,70.50
2022-12-08T20:21:51.953Z,70.51
2022-12-08T20:24:20.106Z,70.94
2022-12-08T20:26:47.470Z,70.81
2022-12-08T20:29:17.110Z,70.70
2022-12-08T20:31:45.025Z,70.39
2022-12-08T20:34:17.111Z,70.74
2022-12-08T20:36:44.968Z,70.97
2022-12-08T20:39:17.971Z,70.68
2022-12-08T20:41:46.970Z,71.08
2022-12-08T20:44:14.479Z,70.97
2022-12-08T20:46:46.250Z,70.89
2022-12-08T20:49:16.741Z,70.91
2022-12-08T20:51:44.781Z,70.79
2022-12-08T20:54:12.220Z,70.29
2022-12-08T20:56:46.469Z,70.93
2022-12-08T20:59:17.151Z,71.03
2022-12-08T21:01:44.636Z,70.80
2022-12-08T21:04:13.140Z,71.12
2022-12-08T21:06:40.988Z,71.24
2022-12-08T21:09:09.241Z,70.80
2022-12-08T21:11:37.141Z,70.62
2022-12-08T21:14:05.082Z,69.80
2022-12-08T21:16:32.810Z,70.45
2022-12-08T21:19:00.617Z,69.97
2022-12-08T21:21:27.990Z,70.50
2022-12-08T21:23:55.597Z,70.49
2022-12-08T21:26:26.187Z,70.78
2022-12-08T21:28:57.982Z,70.95
2022-12-08T21:31:32.144Z,71.07
2022-12-08T21:34:00.545Z,70.62
2022-12-08T21:36:28.065Z,70.90
2022-12-08T21:38:55.614Z,71.17
2022-12-08T21:41:42.438Z,71.16
2022-12-08T21:44:11.988Z,70.96
2022-12-08T21:46:39.314Z,71.01
2022-12-08T21:49:07.176Z,71.04
2022-12-08T21:51:38.031Z,71.24
2022-12-08T21:54:05.419Z,70.98
2022-12-08T21:56:33.270Z,70.93
2022-12-08T21:59:00.555Z,71.93
2022-12-08T22:01:28.188Z,71.72
2022-12-08T22:03:56.312Z,71.89
2022-12-08T22:06:23.878Z,71.56
2022-12-08T22:08:51.393Z,71.74
2022-12-08T22:11:19.386Z,71.62
2022-12-08T22:13:47.029Z,71.72
2022-12-08T22:16:15.058Z,71.96
2022-12-08T22:18:42.906Z,71.87
2022-12-08T22:21:16.369Z,72.07
2022-12-08T22:23:44.472Z,72.50
2022-12-08T22:26:12.709Z,72.56
2022-12-08T22:28:42.471Z,72.69
2022-12-08T22:31:15.441Z,72.90
2022-12-08T22:33:43.499Z,72.77
2022-12-08T22:36:15.653Z,72.38
2022-12-08T22:38:43.013Z,72.40
2022-12-08T22:41:10.571Z,72.29
2022-12-08T22:43:37.902Z,72.18
2022-12-08T22:46:24.445Z,71.91
2022-12-08T22:48:54.768Z,72.08
2022-12-08T22:51:22.011Z,72.36
2022-12-08T22:53:50.150Z,72.46
2022-12-08T22:56:19.218Z,72.96
2022-12-08T22:58:47.117Z,72.80
2022-12-08T23:01:26.334Z,73.35
2022-12-08T23:03:53.674Z,72.81
2022-12-08T23:06:21.741Z,72.94
2022-12-08T23:08:49.380Z,73.65
2022-12-08T23:11:17.353Z,73.65
2022-12-08T23:13:45.394Z,73.94
2022-12-08T23:16:13.202Z,73.58
2022-12-08T23:18:42.547Z,73.37
2022-12-08T23:21:16.714Z,73.68
2022-12-08T23:23:44.140Z,73.80
2022-12-08T23:26:21.964Z,73.49
2022-12-08T23:28:50.513Z,73.35
2022-12-08T23:31:18.482Z,73.21
2022-12-08T23:33:46.570Z,73.42
2022-12-08T23:36:14.489Z,73.50
2022-12-08T23:38:42.148Z,74.39
2022-12-08T23:41:11.580Z,74.43
2022-12-08T23:43:47.293Z,74.30
2022-12-08T23:46:16.040Z,74.44
2022-12-08T23:48:43.736Z,74.68
2022-12-08T23:51:12.126Z,74.30
2022-12-08T23:53:40.228Z,74.32
2022-12-08T23:56:10.574Z,74.57
2022-12-08T23:58:38.504Z,74.46
